Time;durP1;ratioP1;P1;durP2;ratioP2;P2;SDS_P1;SDS_P2;PMS_P1;PMS_P2;Temp;Humidity;BMP_temperature;BMP_pressure;BME280_temperature;BME280_humidity;BME280_pressure;Samples;Min_cycle;Max_cycle;Signal;HPM_P1;HPM_P2
2022/07/26 00:02:12;;;;;;;6.80;1.20;;;21.10;61.10;;;;;;4995082;28;20451;-68
2022/07/26 00:04:39;;;;;;;2.07;1.03;;;21.10;62.10;;;;;;4994420;28;20456;-68
2022/07/26 00:07:05;;;;;;;6.67;1.50;;;21.00;61.60;;;;;;4994282;28;20934;-68
2022/07/26 00:09:32;;;;;;;4.40;1.43;;;21.00;61.90;;;;;;4998247;28;20460;-68
2022/07/26 00:11:59;;;;;;;3.47;1.23;;;21.00;61.90;;;;;;4998501;28;20490;-69
2022/07/26 00:14:26;;;;;;;2.70;1.10;;;21.00;62.00;;;;;;4998474;28;20464;-68
2022/07/26 00:16:54;;;;;;;2.57;1.10;;;20.90;62.30;;;;;;4998872;28;20451;-68
2022/07/26 00:19:21;;;;;;;3.63;1.00;;;20.90;63.00;;;;;;4998494;28;20498;-68
2022/07/26 00:22:32;;;;;;;6.50;1.30;;;20.90;63.60;;;;;;4998543;28;20460;-68
2022/07/26 00:24:34;;;;;;;3.47;1.30;;;20.80;63.60;;;;;;4997964;28;20502;-69
2022/07/26 00:27:01;;;;;;;3.90;2.07;;;20.80;64.00;;;;;;4998417;28;20452;-69
2022/07/26 00:29:28;;;;;;;3.63;1.10;;;20.70;64.50;;;;;;4998252;28;20482;-68
2022/07/26 00:31:56;;;;;;;4.83;0.97;;;20.70;64.60;;;;;;4998456;28;20484;-69
2022/07/26 00:34:23;;;;;;;4.07;1.87;;;20.70;65.10;;;;;;4998444;28;20813;-68
2022/07/26 00:36:50;;;;;;;5.97;1.30;;;20.70;65.60;;;;;;4998299;28;20447;-68
2022/07/26 00:39:16;;;;;;;3.37;1.40;;;20.60;65.60;;;;;;4997721;28;20843;-69
2022/07/26 00:41:43;;;;;;;3.37;0.90;;;20.60;65.90;;;;;;4997921;28;20439;-68
2022/07/26 00:44:10;;;;;;;3.90;1.07;;;20.60;66.30;;;;;;4997777;28;20463;-68
2022/07/26 00:46:37;;;;;;;3.83;1.33;;;20.60;66.50;;;;;;4997860;28;20452;-68
2022/07/26 00:49:05;;;;;;;4.37;1.00;;;20.60;66.40;;;;;;4998030;28;20468;-68
2022/07/26 00:51:32;;;;;;;7.60;1.53;;;20.60;66.80;;;;;;4997987;28;20486;-68
2022/07/26 00:53:59;;;;;;;3.57;1.60;;;20.60;66.70;;;;;;4997986;28;20452;-68
2022/07/26 00:56:26;;;;;;;2.95;1.30;;;20.60;66.80;;;;;;4996637;28;20806;-68
2022/07/26 00:58:53;;;;;;;3.70;1.43;;;20.60;67.00;;;;;;4997350;28;20255;-68
2022/07/26 01:01:20;;;;;;;2.70;1.37;;;20.60;67.20;;;;;;4997591;28;20463;-68
2022/07/26 01:03:50;;;;;;;3.60;1.73;;;20.50;68.50;;;;;;4997570;28;20444;-68
2022/07/26 01:06:18;;;;;;;4.20;1.40;;;20.60;68.10;;;;;;4997415;28;20436;-68
2022/07/26 01:08:45;;;;;;;7.60;1.60;;;20.50;67.80;;;;;;4997238;28;20476;-68
2022/07/26 01:11:12;;;;;;;4.43;1.50;;;20.50;67.70;;;;;;4997030;28;20487;-68
2022/07/26 01:13:46;;;;;;;4.03;1.30;;;20.50;67.90;;;;;;4997414;28;20433;-68
2022/07/26 01:16:13;;;;;;;6.67;1.50;;;20.50;67.80;;;;;;4997421;28;20456;-68
2022/07/26 01:18:39;;;;;;;3.53;1.50;;;20.50;68.10;;;;;;4997278;28;20483;-68
2022/07/26 01:21:09;;;;;;;3.83;1.50;;;20.40;68.10;;;;;;4997109;28;20440;-67
2022/07/26 01:23:38;;;;;;;7.70;2.00;;;20.40;68.60;;;;;;4996706;28;20460;-68
2022/07/26 01:26:05;;;;;;;5.83;2.10;;;20.40;68.60;;;;;;4996951;28;20452;-68
2022/07/26 01:28:35;;;;;;;5.63;1.57;;;20.30;69.10;;;;;;4996852;28;20468;-68
2022/07/26 01:31:02;;;;;;;3.60;1.50;;;20.20;69.40;;;;;;4996573;28;20480;-68
2022/07/26 01:33:29;;;;;;;3.73;1.50;;;20.20;69.80;;;;;;4997163;28;20436;-68
2022/07/26 01:35:56;;;;;;;2.80;2.00;;;20.20;69.80;;;;;;4997056;28;20459;-68
2022/07/26 01:38:22;;;;;;;5.70;1.80;;;20.10;70.60;;;;;;4997083;28;20479;-68
2022/07/26 01:40:51;;;;;;;3.70;1.80;;;20.10;70.80;;;;;;4996788;28;20460;-68
2022/07/26 01:43:18;;;;;;;3.87;1.53;;;20.10;71.40;;;;;;4996641;28;20460;-68
2022/07/26 01:45:44;;;;;;;3.80;1.17;;;20.10;71.90;;;;;;4996517;28;20938;-67
2022/07/26 01:48:11;;;;;;;7.60;1.90;;;20.10;71.80;;;;;;4996395;28;20452;-67
2022/07/26 01:50:38;;;;;;;3.93;1.50;;;20.00;71.90;;;;;;4996629;28;20488;-68
2022/07/26 01:53:05;;;;;;;3.80;1.50;;;20.00;72.50;;;;;;4996501;28;20484;-68
2022/07/26 01:55:32;;;;;;;3.20;1.30;;;19.90;73.00;;;;;;4996568;28;20461;-68
2022/07/26 01:58:00;;;;;;;4.47;1.37;;;19.90;74.50;;;;;;4996223;28;20882;-68
2022/07/26 02:00:27;;;;;;;5.00;1.37;;;19.80;73.90;;;;;;4996976;28;20456;-68
2022/07/26 02:02:54;;;;;;;6.43;1.70;;;19.80;74.50;;;;;;4995955;28;20519;-68
2022/07/26 02:05:21;;;;;;;3.70;2.10;;;19.80;74.80;;;;;;4996111;28;20460;-68
2022/07/26 02:07:48;;;;;;;3.13;1.50;;;19.80;75.00;;;;;;4995770;28;20462;-68
2022/07/26 02:10:16;;;;;;;1.90;1.40;;;19.80;75.40;;;;;;4995755;28;20981;-68
2022/07/26 02:12:43;;;;;;;4.57;1.77;;;19.70;75.40;;;;;;4995762;28;20466;-68
2022/07/26 02:15:13;;;;;;;2.67;1.20;;;19.70;75.70;;;;;;4996025;28;20448;-68
2022/07/26 02:17:40;;;;;;;3.83;1.73;;;19.80;76.10;;;;;;4995887;28;20452;-68
2022/07/26 02:20:08;;;;;;;2.60;1.30;;;19.80;76.00;;;;;;4995903;28;20475;-68
2022/07/26 02:22:34;;;;;;;3.77;1.73;;;19.80;76.00;;;;;;4995836;28;20480;-68
2022/07/26 02:25:01;;;;;;;5.90;2.00;;;19.70;76.20;;;;;;4995631;28;20448;-68
2022/07/26 02:27:28;;;;;;;7.27;1.63;;;19.70;76.50;;;;;;4996295;28;20459;-68
2022/07/26 02:29:55;;;;;;;4.47;1.40;;;19.70;77.20;;;;;;4995590;28;20468;-68
2022/07/26 02:32:23;;;;;;;5.10;1.80;;;19.70;77.30;;;;;;4994651;28;20808;-68
2022/07/26 02:34:50;;;;;;;7.23;2.43;;;19.70;77.30;;;;;;4995623;28;20818;-68
2022/07/26 02:37:16;;;;;;;6.33;1.67;;;19.60;77.60;;;;;;4995803;28;20452;-68
2022/07/26 02:39:43;;;;;;;6.63;2.27;;;19.70;77.90;;;;;;4995569;28;20475;-68
2022/07/26 02:42:10;;;;;;;6.70;2.00;;;19.60;78.00;;;;;;4995636;28;20484;-68
2022/07/26 02:44:37;;;;;;;8.23;2.20;;;19.60;78.70;;;;;;4995795;28;20451;-68
2022/07/26 02:47:03;;;;;;;7.30;2.00;;;19.50;79.00;;;;;;4995389;28;20451;-68
2022/07/26 02:49:31;;;;;;;4.97;1.90;;;19.50;79.30;;;;;;4995403;28;20475;-68
2022/07/26 02:51:58;;;;;;;4.30;1.80;;;19.50;79.40;;;;;;4995348;28;20451;-68
2022/07/26 02:54:25;;;;;;;6.97;2.00;;;19.50;79.70;;;;;;4995221;28;20448;-68
2022/07/26 02:56:52;;;;;;;4.60;1.80;;;19.50;80.00;;;;;;4995278;28;20458;-68
2022/07/26 02:59:18;;;;;;;5.67;2.20;;;19.50;80.20;;;;;;4994975;28;20487;-68
2022/07/26 03:01:45;;;;;;;9.43;1.87;;;19.50;80.50;;;;;;4994850;28;20479;-68
2022/07/26 03:04:12;;;;;;;3.40;1.87;;;19.40;81.00;;;;;;4995028;28;20449;-68
2022/07/26 03:06:40;;;;;;;8.50;1.77;;;19.40;80.70;;;;;;4995129;28;20433;-68
2022/07/26 03:09:07;;;;;;;4.50;1.80;;;19.40;81.20;;;;;;4994927;28;20468;-68
2022/07/26 03:11:34;;;;;;;6.67;1.50;;;19.40;81.20;;;;;;4994915;28;20460;-68
2022/07/26 03:14:15;;;;;;;7.40;1.90;;;19.40;81.50;;;;;;4952435;28;20472;-68
2022/07/26 03:16:42;;;;;;;5.60;2.10;;;19.40;81.90;;;;;;4995037;28;20448;-67
2022/07/26 03:19:09;;;;;;;5.73;1.93;;;19.40;82.10;;;;;;4994781;28;20471;-68
2022/07/26 03:21:35;;;;;;;3.13;1.80;;;19.30;82.20;;;;;;4994499;28;20485;-68
2022/07/26 03:24:04;;;;;;;5.83;2.10;;;19.30;82.60;;;;;;4994807;28;20459;-68
2022/07/26 03:26:31;;;;;;;4.40;2.27;;;19.30;82.90;;;;;;4994682;28;20459;-68
2022/07/26 03:28:58;;;;;;;13.73;2.37;;;19.30;83.00;;;;;;4994586;28;20855;-68
2022/07/26 03:31:24;;;;;;;7.93;2.13;;;19.30;83.10;;;;;;4994627;28;20452;-68
2022/07/26 03:33:51;;;;;;;4.70;2.43;;;19.30;83.50;;;;;;4994545;28;20460;-68
2022/07/26 03:36:18;;;;;;;7.43;2.30;;;19.30;83.90;;;;;;4994207;28;20454;-68
2022/07/26 03:38:44;;;;;;;6.30;1.70;;;19.30;84.40;;;;;;4994456;28;20484;-68
2022/07/26 03:41:13;;;;;;;4.77;2.00;;;19.20;84.60;;;;;;4994401;28;20444;-68
2022/07/26 03:43:39;;;;;;;9.13;2.60;;;19.30;84.40;;;;;;4994190;28;20488;-68
2022/07/26 03:46:06;;;;;;;12.13;2.93;;;19.30;84.70;;;;;;4994546;28;20433;-68
2022/07/26 03:48:33;;;;;;;11.67;2.90;;;19.30;85.10;;;;;;4993977;28;20837;-68
2022/07/26 03:51:00;;;;;;;6.40;1.93;;;19.30;84.50;;;;;;4994481;28;20448;-68
2022/07/26 03:53:27;;;;;;;6.40;2.03;;;19.30;84.80;;;;;;4994278;28;20445;-68
2022/07/26 03:58:39;;;;;;;7.90;2.33;;;19.30;85.00;;;;;;4994458;28;20443;-68
2022/07/26 04:01:05;;;;;;;8.13;2.20;;;19.30;85.60;;;;;;4994319;28;20441;-68
2022/07/26 04:03:32;;;;;;;8.33;2.00;;;19.40;85.60;;;;;;4994129;28;20499;-68
2022/07/26 04:05:59;;;;;;;5.67;2.87;;;19.40;85.50;;;;;;4993858;28;20934;-68
2022/07/26 04:08:26;;;;;;;9.27;2.73;;;19.50;86.20;;;;;;4994026;28;20475;-68
2022/07/26 04:10:52;;;;;;;14.50;2.60;;;19.50;85.80;;;;;;4993740;28;20977;-68
2022/07/26 04:13:22;;;;;;;6.23;2.90;;;19.50;86.00;;;;;;4993805;28;20456;-68
2022/07/26 04:15:51;;;;;;;11.83;2.90;;;19.50;85.20;;;;;;4994239;28;20506;-68
2022/07/26 04:18:17;;;;;;;10.77;3.77;;;19.50;85.70;;;;;;4993895;28;20481;-68
2022/07/26 04:20:45;;;;;;;11.83;2.60;;;19.50;86.10;;;;;;4994285;28;20444;-68
2022/07/26 04:23:11;;;;;;;6.73;2.83;;;19.40;86.60;;;;;;4993980;28;20483;-68
2022/07/26 04:25:38;;;;;;;10.60;3.00;;;19.40;87.00;;;;;;4993970;28;20478;-68
2022/07/26 04:28:05;;;;;;;7.10;2.30;;;19.40;87.00;;;;;;4993526;28;20454;-68
2022/07/26 04:30:32;;;;;;;9.17;3.03;;;19.40;87.60;;;;;;4993908;28;20456;-68
2022/07/26 04:33:00;;;;;;;10.73;3.03;;;19.40;87.90;;;;;;4994468;28;20448;-68
2022/07/26 04:35:27;;;;;;;11.30;3.10;;;19.40;88.00;;;;;;4993555;28;20819;-68
2022/07/26 04:37:54;;;;;;;9.57;2.40;;;19.40;88.10;;;;;;4993960;28;20452;-68
2022/07/26 04:40:22;;;;;;;13.63;2.93;;;19.40;88.50;;;;;;4993754;28;20507;-68
2022/07/26 04:42:50;;;;;;;8.77;3.13;;;19.40;89.00;;;;;;4993850;28;20484;-68
2022/07/26 04:45:17;;;;;;;8.20;2.90;;;19.40;89.00;;;;;;4994028;28;20487;-68
2022/07/26 04:47:48;;;;;;;9.07;3.17;;;19.50;88.60;;;;;;4993804;28;20444;-68
2022/07/26 04:50:17;;;;;;;9.73;3.17;;;19.50;88.80;;;;;;4993542;28;20997;-68
2022/07/26 04:52:44;;;;;;;11.23;3.33;;;19.50;89.20;;;;;;4993710;28;20440;-68
2022/07/26 04:55:11;;;;;;;8.70;2.80;;;19.60;89.10;;;;;;4995562;28;20437;-68
2022/07/26 04:57:38;;;;;;;9.70;2.90;;;19.60;88.80;;;;;;4997459;28;20503;-68
2022/07/26 05:00:07;;;;;;;7.33;2.90;;;19.60;89.30;;;;;;4997671;28;20468;-68
2022/07/26 05:02:34;;;;;;;9.37;2.77;;;19.60;88.60;;;;;;4997008;28;21100;-68
2022/07/26 05:05:01;;;;;;;15.33;3.53;;;19.70;89.60;;;;;;4996946;28;20455;-68
2022/07/26 05:07:39;;;;;;;4.93;2.80;;;19.70;89.50;;;;;;4996913;28;20968;-68
2022/07/26 05:10:07;;;;;;;16.97;5.43;;;19.70;90.00;;;;;;4997142;28;20482;-68
2022/07/26 05:12:34;;;;;;;14.40;5.50;;;19.70;89.40;;;;;;4996721;28;20456;-68
2022/07/26 05:15:01;;;;;;;13.27;3.60;;;19.70;89.10;;;;;;4997048;28;20494;-68
2022/07/26 05:17:27;;;;;;;13.47;2.97;;;19.70;89.20;;;;;;4997153;28;20448;-68
2022/07/26 05:19:54;;;;;;;4.70;3.00;;;19.70;90.00;;;;;;4997123;28;20474;-68
2022/07/26 05:22:21;;;;;;;12.77;3.30;;;19.70;90.10;;;;;;4996708;28;21001;-68
2022/07/26 05:24:49;;;;;;;16.10;3.90;;;19.80;89.60;;;;;;4996915;28;20975;-68
2022/07/26 05:27:16;;;;;;;13.90;2.93;;;19.80;89.60;;;;;;4996940;28;20831;-68
2022/07/26 05:29:44;;;;;;;14.97;3.53;;;19.80;89.50;;;;;;4996632;28;20471;-68
2022/07/26 05:32:11;;;;;;;10.80;3.47;;;19.80;89.60;;;;;;4996744;28;20448;-68
2022/07/26 05:34:38;;;;;;;11.50;3.40;;;19.90;90.00;;;;;;4996689;28;20448;-68
2022/07/26 05:37:04;;;;;;;8.77;2.80;;;19.90;89.50;;;;;;4996708;28;20463;-68
2022/07/26 05:39:31;;;;;;;13.17;2.73;;;20.00;89.50;;;;;;4996570;28;20475;-68
2022/07/26 05:41:59;;;;;;;10.30;3.07;;;20.00;88.80;;;;;;4996267;28;20934;-68
2022/07/26 05:44:26;;;;;;;9.70;2.77;;;20.10;89.20;;;;;;4996588;28;20433;-68
2022/07/26 05:46:53;;;;;;;9.73;3.10;;;20.10;89.20;;;;;;4996582;28;20463;-68
2022/07/26 05:49:20;;;;;;;6.60;2.17;;;20.10;89.40;;;;;;4996440;28;20518;-68
2022/07/26 05:51:46;;;;;;;8.97;2.67;;;20.10;88.90;;;;;;4996413;28;20452;-68
2022/07/26 05:54:13;;;;;;;7.37;2.60;;;20.20;88.80;;;;;;4996382;28;20444;-68
2022/07/26 05:56:40;;;;;;;11.80;2.90;;;20.20;89.50;;;;;;4996433;28;20479;-68
2022/07/26 05:59:08;;;;;;;11.40;3.10;;;20.20;89.20;;;;;;4996273;28;20466;-68
2022/07/26 06:01:35;;;;;;;9.57;3.17;;;20.20;89.30;;;;;;4996325;28;20810;-68
2022/07/26 06:04:01;;;;;;;7.30;2.83;;;20.30;88.70;;;;;;4996153;28;20506;-68
2022/07/26 06:06:28;;;;;;;12.10;3.17;;;20.30;88.40;;;;;;4995951;28;20452;-68
2022/07/26 06:08:56;;;;;;;13.10;3.20;;;20.30;88.40;;;;;;4995684;28;21000;-68
2022/07/26 06:11:22;;;;;;;13.40;3.83;;;20.30;89.60;;;;;;4995810;28;20472;-68
2022/07/26 06:13:49;;;;;;;14.80;4.03;;;20.30;88.90;;;;;;4995728;28;20929;-68
2022/07/26 06:16:17;;;;;;;7.10;3.50;;;20.30;89.20;;;;;;4995736;28;20950;-68
2022/07/26 06:18:44;;;;;;;8.00;3.50;;;20.20;90.00;;;;;;4995521;28;20887;-68
2022/07/26 06:21:11;;;;;;;9.60;3.70;;;20.20;90.00;;;;;;4995534;28;20470;-68
2022/07/26 06:23:38;;;;;;;10.10;4.90;;;20.10;90.20;;;;;;4995469;28;21047;-68
2022/07/26 06:26:05;;;;;;;11.30;5.60;;;20.10;90.40;;;;;;4995814;28;20448;-68
2022/07/26 06:28:32;;;;;;;15.50;4.10;;;20.10;90.70;;;;;;4995639;28;20480;-68
2022/07/26 06:30:59;;;;;;;9.70;4.03;;;20.00;90.90;;;;;;4995721;28;20498;-68
2022/07/26 06:33:27;;;;;;;11.70;4.50;;;20.00;91.00;;;;;;4995776;28;20452;-68
2022/07/26 06:35:54;;;;;;;12.93;5.50;;;20.10;91.00;;;;;;4995620;28;20456;-68
2022/07/26 06:38:21;;;;;;;16.77;5.40;;;20.00;91.10;;;;;;4995459;28;20464;-68
2022/07/26 06:40:48;;;;;;;11.30;4.40;;;20.10;90.80;;;;;;4995178;28;20432;-68
2022/07/26 06:43:14;;;;;;;8.90;4.37;;;20.20;91.00;;;;;;4995466;28;20488;-68
2022/07/26 06:45:41;;;;;;;15.80;4.10;;;20.20;91.20;;;;;;4995391;28;20452;-68
2022/07/26 06:48:08;;;;;;;15.57;5.50;;;20.20;91.10;;;;;;4995286;28;20451;-68
2022/07/26 06:50:36;;;;;;;18.43;5.43;;;20.30;91.30;;;;;;4995362;28;20448;-68
2022/07/26 06:53:03;;;;;;;9.70;5.10;;;20.30;91.20;;;;;;4995012;28;20805;-68
2022/07/26 06:55:29;;;;;;;16.70;6.53;;;20.30;91.20;;;;;;4995401;28;20432;-68
2022/07/26 06:58:10;;;;;;;11.90;5.37;;;20.40;91.20;;;;;;4995454;28;20457;-68
2022/07/26 07:00:36;;;;;;;16.10;6.20;;;20.40;90.90;;;;;;4994952;28;20956;-68
2022/07/26 07:03:03;;;;;;;12.27;5.43;;;20.40;90.90;;;;;;4995330;28;20497;-69
2022/07/26 07:05:30;;;;;;;16.20;5.43;;;20.40;91.10;;;;;;4994649;28;20969;-69
2022/07/26 07:07:58;;;;;;;11.70;6.00;;;20.40;91.00;;;;;;4994927;28;20815;-69
2022/07/26 07:10:25;;;;;;;12.03;5.17;;;20.50;90.80;;;;;;4995087;28;20459;-69
2022/07/26 07:12:51;;;;;;;10.07;5.10;;;20.50;90.80;;;;;;4994842;28;20456;-69
2022/07/26 07:15:18;;;;;;;14.20;5.40;;;20.50;91.00;;;;;;4994897;28;20448;-69
2022/07/26 07:17:45;;;;;;;10.10;5.70;;;20.60;91.10;;;;;;4994345;28;20452;-69
2022/07/26 07:20:12;;;;;;;11.47;6.00;;;20.70;90.50;;;;;;4994855;28;20471;-69
2022/07/26 07:22:39;;;;;;;16.30;5.27;;;20.80;90.20;;;;;;4994549;28;20923;-69
2022/07/26 07:25:07;;;;;;;11.10;6.67;;;20.90;90.20;;;;;;4994644;28;20445;-69
2022/07/26 07:27:34;;;;;;;13.43;6.07;;;21.00;89.90;;;;;;4994614;28;20459;-69
2022/07/26 07:30:01;;;;;;;11.70;6.53;;;21.00;90.30;;;;;;4994611;28;20464;-69
2022/07/26 07:32:28;;;;;;;14.80;6.77;;;21.10;89.80;;;;;;4994264;28;20444;-69
2022/07/26 07:34:54;;;;;;;13.70;7.20;;;21.20;89.60;;;;;;4994230;28;20452;-69
2022/07/26 07:37:21;;;;;;;12.60;6.20;;;21.30;88.90;;;;;;4994615;28;20448;-70
2022/07/26 07:39:48;;;;;;;10.13;7.13;;;21.30;88.80;;;;;;4994443;28;20472;-69
2022/07/26 07:42:16;;;;;;;12.17;6.30;;;21.30;89.70;;;;;;4994648;28;20853;-69
2022/07/26 07:44:43;;;;;;;11.30;6.70;;;21.40;88.70;;;;;;4994135;28;20468;-69
2022/07/26 07:47:10;;;;;;;14.10;7.70;;;21.50;89.30;;;;;;4994717;28;20451;-69
2022/07/26 07:49:37;;;;;;;11.17;7.80;;;21.50;88.00;;;;;;4994141;28;20476;-69
2022/07/26 07:52:05;;;;;;;11.23;7.17;;;21.70;88.30;;;;;;4994689;28;20455;-69
2022/07/26 07:54:32;;;;;;;11.17;7.60;;;21.70;87.20;;;;;;4994135;28;20448;-71
2022/07/26 07:56:58;;;;;;;11.10;7.73;;;21.70;86.40;;;;;;4994481;28;20453;-72
2022/07/26 07:59:27;;;;;;;10.20;7.30;;;21.70;86.10;;;;;;4994337;28;20822;-71
2022/07/26 08:01:54;;;;;;;11.00;6.80;;;21.70;86.10;;;;;;4994721;28;20530;-71
2022/07/26 08:04:21;;;;;;;14.87;6.57;;;21.90;87.20;;;;;;4994260;28;20901;-71
2022/07/26 08:06:48;;;;;;;17.40;6.53;;;22.10;86.40;;;;;;4994456;28;20458;-72
2022/07/26 08:09:14;;;;;;;13.23;6.90;;;22.30;84.90;;;;;;4994079;28;20477;-71
2022/07/26 08:11:41;;;;;;;10.97;5.90;;;22.50;83.10;;;;;;4994066;28;20500;-71
2022/07/26 08:14:08;;;;;;;11.53;6.07;;;22.70;82.90;;;;;;4994143;28;20452;-72
2022/07/26 08:16:36;;;;;;;8.10;5.17;;;22.90;83.00;;;;;;4994052;28;20440;-72
2022/07/26 08:19:03;;;;;;;11.03;5.87;;;23.20;78.80;;;;;;4994578;28;20460;-71
2022/07/26 08:21:31;;;;;;;8.50;6.10;;;23.30;78.40;;;;;;4994217;28;20448;-71
2022/07/26 08:23:58;;;;;;;9.27;5.53;;;23.50;78.90;;;;;;4994038;28;20487;-72
2022/07/26 08:26:25;;;;;;;9.63;5.20;;;23.60;77.40;;;;;;4994016;28;20461;-71
2022/07/26 08:28:52;;;;;;;11.67;5.40;;;23.80;76.90;;;;;;4993966;28;20476;-71
2022/07/26 08:31:19;;;;;;;10.30;5.40;;;24.00;78.70;;;;;;4997950;28;20814;-71
2022/07/26 08:33:48;;;;;;;6.00;4.80;;;24.10;74.80;;;;;;4997826;28;20463;-71
2022/07/26 08:36:15;;;;;;;6.33;4.87;;;24.00;73.60;;;;;;4997869;28;20437;-72
2022/07/26 08:38:42;;;;;;;11.50;5.10;;;24.00;74.30;;;;;;4997838;28;20464;-71
2022/07/26 08:41:09;;;;;;;7.70;4.93;;;24.00;72.90;;;;;;4997859;28;20881;-71
2022/07/26 08:43:36;;;;;;;7.00;4.97;;;24.00;73.60;;;;;;4997664;28;20494;-71
2022/07/26 08:46:03;;;;;;;8.10;5.10;;;24.10;74.80;;;;;;4997693;28;20463;-71
2022/07/26 08:48:30;;;;;;;6.87;4.47;;;24.20;73.10;;;;;;4997467;28;20468;-70
2022/07/26 08:51:00;;;;;;;7.50;4.17;;;24.20;70.60;;;;;;4997300;28;20879;-70
2022/07/26 08:53:29;;;;;;;8.73;4.60;;;24.20;70.30;;;;;;4997492;28;20446;-70
2022/07/26 08:55:56;;;;;;;7.60;4.50;;;24.20;71.70;;;;;;4997038;28;20942;-70
2022/07/26 08:58:24;;;;;;;5.23;4.20;;;24.30;71.60;;;;;;4997328;28;20464;-70
2022/07/26 09:01:04;;;;;;;8.77;5.37;;;24.40;71.20;;;;;;4997581;28;20452;-70
2022/07/26 09:03:30;;;;;;;6.97;4.40;;;24.50;70.10;;;;;;4997263;28;20533;-70
2022/07/26 09:06:11;;;;;;;5.23;3.80;;;24.70;69.10;;;;;;4996912;28;20969;-70
2022/07/26 09:08:38;;;;;;;10.13;4.17;;;24.80;69.50;;;;;;4997190;28;20467;-70
2022/07/26 09:11:26;;;;;;;8.47;3.90;;;25.00;67.80;;;;;;4996645;28;20820;-70
2022/07/26 09:13:57;;;;;;;5.67;3.57;;;25.10;66.90;;;;;;4997310;28;20444;-70
2022/07/26 09:16:24;;;;;;;5.73;3.57;;;25.10;65.00;;;;;;4997103;28;20817;-70
2022/07/26 09:18:51;;;;;;;12.00;4.10;;;25.20;65.30;;;;;;4996945;28;20468;-70
2022/07/26 09:21:30;;;;;;;7.63;3.30;;;25.20;64.70;;;;;;4996999;28;20465;-67
2022/07/26 09:23:57;;;;;;;8.57;2.97;;;25.20;65.80;;;;;;4997125;28;20483;-67
2022/07/26 09:26:25;;;;;;;8.00;3.30;;;25.20;64.60;;;;;;4996939;28;20462;-67
2022/07/26 09:29:08;;;;;;;12.70;3.60;;;25.30;66.50;;;;;;4996801;28;20471;-67
2022/07/26 09:31:36;;;;;;;4.00;2.60;;;25.30;64.40;;;;;;4996836;28;20455;-67
2022/07/26 09:34:03;;;;;;;4.83;3.10;;;25.40;61.90;;;;;;4996836;28;20448;-67
2022/07/26 09:36:32;;;;;;;6.17;3.20;;;25.60;62.80;;;;;;4996744;28;20452;-67
2022/07/26 09:39:01;;;;;;;6.23;3.33;;;25.80;61.10;;;;;;4996801;28;20468;-67
2022/07/26 09:41:29;;;;;;;4.70;3.30;;;26.10;61.30;;;;;;4996085;28;20460;-67
2022/07/26 09:43:58;;;;;;;6.83;3.33;;;26.30;60.20;;;;;;4996591;28;20822;-67
2022/07/26 09:46:26;;;;;;;7.53;2.50;;;26.40;58.60;;;;;;4996768;28;20452;-67
2022/07/26 09:48:54;;;;;;;5.00;2.37;;;26.40;57.90;;;;;;4996458;28;20460;-67
2022/07/26 09:51:40;;;;;;;8.50;2.90;;;26.10;57.90;;;;;;4996458;28;20496;-67
2022/07/26 09:54:07;;;;;;;6.80;3.43;;;26.00;59.40;;;;;;4996509;28;20447;-67
2022/07/26 09:56:45;;;;;;;7.27;3.37;;;25.90;60.60;;;;;;4996530;28;20479;-67
2022/07/26 09:59:14;;;;;;;9.03;2.73;;;26.10;60.50;;;;;;4996288;28;20467;-67
2022/07/26 10:01:41;;;;;;;2.57;2.00;;;26.30;58.70;;;;;;4996587;28;20459;-67
2022/07/26 10:04:08;;;;;;;3.40;2.10;;;26.60;57.10;;;;;;4995824;28;20864;-67
2022/07/26 10:06:35;;;;;;;4.23;2.73;;;26.90;57.30;;;;;;4996179;28;20448;-67
2022/07/26 10:09:04;;;;;;;4.97;2.67;;;27.10;56.10;;;;;;4995967;28;20477;-67
2022/07/26 10:11:38;;;;;;;4.43;2.60;;;26.90;53.70;;;;;;4995992;28;20471;-67
2022/07/26 10:14:40;;;;;;;7.57;3.30;;;26.80;54.30;;;;;;4996016;28;20913;-67
2022/07/26 10:17:44;;;;;;;4.80;2.70;;;26.40;56.20;;;;;;4995679;28;20961;-67
2022/07/26 10:20:30;;;;;;;6.73;3.10;;;26.20;57.10;;;;;;4995881;28;20483;-67
2022/07/26 10:22:57;;;;;;;6.77;3.00;;;26.00;56.60;;;;;;4995908;28;20440;-67
2022/07/26 10:25:47;;;;;;;8.63;3.63;;;25.90;56.30;;;;;;4996324;28;20488;-67
2022/07/26 10:28:26;;;;;;;4.80;3.10;;;25.80;56.40;;;;;;4995820;28;20442;-67
2022/07/26 10:30:54;;;;;;;5.93;3.03;;;25.70;56.80;;;;;;4995801;28;20807;-67
2022/07/26 10:33:24;;;;;;;4.07;3.00;;;25.60;56.50;;;;;;4995762;28;20456;-67
2022/07/26 10:35:51;;;;;;;8.50;3.37;;;25.70;57.10;;;;;;4995423;28;20977;-67
2022/07/26 10:38:24;;;;;;;6.27;2.60;;;25.80;58.00;;;;;;4995796;28;20458;-67
2022/07/26 10:40:59;;;;;;;4.13;2.30;;;26.10;54.50;;;;;;4996218;28;20444;-67
2022/07/26 10:43:27;;;;;;;3.03;2.70;;;26.60;55.60;;;;;;4996269;28;20436;-67
2022/07/26 10:46:23;;;;;;;6.83;3.10;;;27.50;53.30;;;;;;4995528;28;20452;-67
2022/07/26 10:48:57;;;;;;;5.10;2.27;;;28.60;49.50;;;;;;4995667;28;20476;-67
2022/07/26 10:51:26;;;;;;;5.53;2.17;;;29.40;45.80;;;;;;4995722;28;20460;-67
2022/07/26 10:54:00;;;;;;;5.00;3.03;;;29.70;44.50;;;;;;4995161;28;20495;-67
2022/07/26 10:56:29;;;;;;;4.63;2.43;;;29.90;43.90;;;;;;4995265;28;20450;-67
2022/07/26 10:58:56;;;;;;;4.40;2.80;;;29.40;44.40;;;;;;4995007;28;20475;-67
2022/07/26 11:01:31;;;;;;;4.70;2.77;;;28.50;45.80;;;;;;4995114;28;20822;-67
2022/07/26 11:03:58;;;;;;;3.47;3.10;;;28.00;48.50;;;;;;4995068;28;20472;-67
2022/07/26 11:06:28;;;;;;;5.90;3.00;;;28.00;48.60;;;;;;4995077;28;20448;-67
2022/07/26 11:08:55;;;;;;;6.43;3.10;;;28.00;50.20;;;;;;4995247;28;20468;-67
2022/07/26 11:11:31;;;;;;;5.43;3.47;;;27.60;49.20;;;;;;4994980;28;20456;-67
2022/07/26 11:14:09;;;;;;;4.27;3.17;;;27.10;50.60;;;;;;4995016;28;20439;-67
2022/07/26 11:16:39;;;;;;;4.33;3.60;;;26.70;51.70;;;;;;4994806;28;20451;-67
2022/07/26 11:19:14;;;;;;;5.27;3.37;;;26.30;52.80;;;;;;4994698;28;20472;-67
2022/07/26 11:21:41;;;;;;;6.27;4.10;;;25.90;53.10;;;;;;4994766;28;20518;-67
2022/07/26 11:24:08;;;;;;;5.27;4.07;;;25.50;54.00;;;;;;4994652;28;20559;-67
2022/07/26 11:26:42;;;;;;;5.00;3.87;;;25.20;54.80;;;;;;4994609;28;20476;-67
2022/07/26 11:29:09;;;;;;;6.80;4.40;;;25.00;55.60;;;;;;4995039;28;20525;-67
2022/07/26 11:31:38;;;;;;;5.33;4.40;;;24.90;56.30;;;;;;4994381;28;20452;-67
2022/07/26 11:34:07;;;;;;;2.87;2.67;;;24.90;57.40;;;;;;4994590;28;20451;-67
2022/07/26 11:36:39;;;;;;;4.03;1.40;;;25.00;58.10;;;;;;4994648;28;20452;-67
2022/07/26 11:39:08;;;;;;;1.93;1.23;;;25.10;57.50;;;;;;4994433;28;20476;-67
2022/07/26 11:41:36;;;;;;;3.23;1.50;;;25.30;57.70;;;;;;4994247;28;20452;-67
2022/07/26 11:44:05;;;;;;;2.50;1.50;;;26.00;58.00;;;;;;4994599;28;20480;-67
2022/07/26 11:46:38;;;;;;;1.30;1.20;;;27.10;53.80;;;;;;4994724;28;20445;-67
2022/07/26 11:49:13;;;;;;;2.93;1.10;;;28.60;52.00;;;;;;4994356;28;20468;-67
2022/07/26 11:51:40;;;;;;;4.07;1.30;;;29.50;47.80;;;;;;4994441;28;20440;-67
2022/07/26 11:54:06;;;;;;;2.93;1.30;;;29.40;45.80;;;;;;4994458;28;20452;-67
2022/07/26 11:56:33;;;;;;;1.70;0.80;;;29.10;46.50;;;;;;4994291;28;20455;-67
2022/07/26 11:59:00;;;;;;;1.23;1.00;;;28.50;47.10;;;;;;4994462;28;20472;-68
2022/07/26 12:01:28;;;;;;;2.60;1.23;;;27.90;48.60;;;;;;4994280;28;20523;-68
2022/07/26 12:03:56;;;;;;;2.90;1.13;;;27.40;49.90;;;;;;4993904;28;20456;-68
2022/07/26 12:06:25;;;;;;;1.87;1.17;;;26.90;51.50;;;;;;4994146;28;20514;-68
2022/07/26 12:08:53;;;;;;;3.23;1.10;;;26.50;52.20;;;;;;4993765;28;20815;-68
2022/07/26 12:11:22;;;;;;;5.27;1.67;;;25.90;53.40;;;;;;4994195;28;20460;-68
2022/07/26 12:13:54;;;;;;;1.53;1.10;;;25.60;55.00;;;;;;4994109;28;20433;-68
2022/07/26 12:16:40;;;;;;;1.20;1.10;;;25.40;55.90;;;;;;4994422;28;20432;-68
2022/07/26 12:19:09;;;;;;;1.73;1.37;;;25.00;56.60;;;;;;4994021;28;20487;-68
2022/07/26 12:21:41;;;;;;;3.30;1.43;;;24.70;58.30;;;;;;4994058;28;20468;-68
2022/07/26 12:24:09;;;;;;;2.30;1.70;;;24.40;59.40;;;;;;4993962;28;20490;-68
2022/07/26 12:26:37;;;;;;;2.70;1.80;;;24.30;60.20;;;;;;4994060;28;20449;-68
2022/07/26 12:31:47;;;;;;;2.00;1.43;;;24.40;62.30;;;;;;4993278;28;20921;-68
2022/07/26 12:34:20;;;;;;;2.90;1.63;;;24.50;61.40;;;;;;4993945;28;20871;-68
2022/07/26 12:36:46;;;;;;;4.13;1.50;;;24.70;61.40;;;;;;4993978;28;20436;-67
2022/07/26 12:39:20;;;;;;;6.10;1.90;;;24.90;60.80;;;;;;4994329;28;20472;-68
2022/07/26 12:41:49;;;;;;;2.20;1.57;;;25.10;58.70;;;;;;4993722;28;20903;-68
2022/07/26 12:44:17;;;;;;;3.47;1.30;;;25.40;57.50;;;;;;4993980;28;20488;-68
2022/07/26 12:46:44;;;;;;;1.60;1.30;;;26.20;56.30;;;;;;4994008;28;20429;-68
2022/07/26 12:49:12;;;;;;;2.53;1.57;;;26.90;54.30;;;;;;4993604;28;20889;-68
2022/07/26 12:51:40;;;;;;;1.73;1.17;;;27.70;52.40;;;;;;4993946;28;20452;-66
2022/07/26 12:54:06;;;;;;;3.03;1.30;;;29.40;48.80;;;;;;4993791;28;20816;-66
2022/07/26 12:56:33;;;;;;;2.23;1.73;;;30.70;44.60;;;;;;4994023;28;20459;-66